Aeroporto :
LOGIN :

Iscrizione | Disclaimer

   EN    FR    IT 

 










Sommario :    VFR   VFR Marginale   IFR   IFR Intensivo   IFR Molto Intensivo
Visibilità : 
Base nubi : 
>= 8 km
>= 3000ft
5 / 8 km
1000 / 3000 ft
1500m / 5 km
500 / 1000 ft
800 / 1500m
200 / 500 ft
< 800m
< 200 ft
Simboli :   Temporali  Nebbia  Neve Forte  Precipitazioni Forti  Vento > 20 kt
SIGMETs :   Varie  Temporali  Ghiacco  Turbolenza  Onda orograficha  Ceneri Vulcaniche






- Altitudine del aeroporto : 1234 ft
- Codice IATA : LUX


ELLX - Luxembourg Findel

ULTIMO METAR :
  • 230120Z AUTO 06010KT 3800 BR BKN002/// OVC003/// 01/01 Q1033 NOSIG

METARs OBSOLETI :
  • 230050Z AUTO 06009KT 1500 BR OVC000/// 01/01 Q1033 NOSIG
  • 230020Z AUTO 06011KT 0550 R24/0650V1600U FG VV000 01/01 Q1034 NOSIG
  • 222350Z 06011KT 0300 R24/1800D FG BKN001 01/01 Q1034 NOSIG
  • 222320Z 06010KT 0300 R24/1600N FG BKN001 01/01 Q1034 NOSIG
  • 222250Z 06010KT 0300 R24/0900V1900U FG BKN001 01/01 Q1034 NOSIG

TAF TAF ELLX
Valido dal 23 a 00 ore il 24 a 06 ore UTC


222300Z 2300/2406 05010KT 0300 FG BKN001
BECMG 2307/2310 CAVOK
TEMPO 2307/2311 3000 BR BKN008
BECMG 2322/2324 15005KT 0500 FZFG BKN002
BECMG 2403/2406 FG
ATIS : +352 4798 27300
Met : +352 4798 27010 / 27050



MetMap, La meteo Aeronautica in un colpo d'occhio ! - Copyright ORBIFLY Dicembre 2007 - Disclaimer

ORBIFLY MET'MAP TEAM :

Programmazione e sviluppo : Alexandra Zaïnal
Concezione : Baudouin d'Aumeries
Aiuto per la programmazione : Marc-Olivier Méhu
Supporto tecnico e logistico : Manuel Goepfert
Aiuto per la traduzione : Arnaldo La Scala

Contatto : metmap@orbifly.com




FONTI E CREDITI :

   NOAA